Time;durP1;ratioP1;P1;durP2;ratioP2;P2;SDS_P1;SDS_P2;PMS_P1;PMS_P2;Temp;Humidity;BMP_temperature;BMP_pressure;BME280_temperature;BME280_humidity;BME280_pressure;Samples;Min_cycle;Max_cycle;Signal;HPM_P1;HPM_P2
2023/10/01 00:00:28;;;;;;;6.95;4.63;;;;;;;21.07;53.45;102351.03;4961264;28;20436;-69
2023/10/01 00:02:55;;;;;;;6.65;4.15;;;;;;;21.06;53.63;102352.00;4960934;28;20198;-69
2023/10/01 00:05:22;;;;;;;7.03;4.50;;;;;;;21.07;53.69;102355.50;4961692;28;20054;-72
2023/10/01 00:07:51;;;;;;;5.75;3.80;;;;;;;21.06;53.38;102359.09;4960924;28;20901;-71
2023/10/01 00:10:18;;;;;;;8.23;4.20;;;;;;;21.06;53.23;102361.75;4961343;28;20789;-76
2023/10/01 00:12:46;;;;;;;8.07;4.30;;;;;;;21.05;53.33;102357.44;4961154;28;20035;-69
2023/10/01 00:15:14;;;;;;;7.35;4.50;;;;;;;21.05;53.44;102363.56;4943768;28;20046;-73
2023/10/01 00:17:40;;;;;;;6.47;4.47;;;;;;;21.05;53.14;102362.72;4960972;28;21105;-70
2023/10/01 00:20:20;;;;;;;7.03;4.28;;;;;;;21.04;53.39;102355.72;4961501;28;20501;-70
2023/10/01 00:23:02;;;;;;;7.13;3.95;;;;;;;21.04;53.51;102358.38;4961140;28;20034;-70
2023/10/01 00:25:32;;;;;;;6.72;4.50;;;;;;;21.03;53.21;102362.84;4961568;28;20867;-70
2023/10/01 00:27:58;;;;;;;6.32;4.38;;;;;;;21.04;53.31;102361.84;4960567;28;20042;-70
2023/10/01 00:30:23;;;;;;;6.75;4.50;;;;;;;21.02;53.44;102361.97;4961016;28;20034;-75
2023/10/01 00:32:49;;;;;;;7.65;4.30;;;;;;;21.02;53.34;102363.78;4961219;28;20089;-70
2023/10/01 00:35:17;;;;;;;6.75;4.50;;;;;;;21.01;53.05;102354.13;4961598;28;20093;-70
2023/10/01 00:37:42;;;;;;;7.35;4.20;;;;;;;21.01;53.56;102362.94;4964245;28;20495;-73
2023/10/01 00:40:10;;;;;;;7.90;4.72;;;;;;;21.00;52.99;102349.78;4964167;28;20097;-75
2023/10/01 00:42:38;;;;;;;7.55;4.13;;;;;;;21.01;52.98;102356.75;4963875;28;20105;-76
2023/10/01 00:45:14;;;;;;;7.38;4.30;;;;;;;21.00;53.24;102355.09;4964255;28;20035;-70
2023/10/01 00:47:45;;;;;;;6.18;4.07;;;;;;;20.99;53.06;102351.56;4964342;28;20035;-74
2023/10/01 00:50:22;;;;;;;6.18;4.05;;;;;;;20.96;53.15;102349.13;4964000;28;20031;-70
2023/10/01 00:52:49;;;;;;;6.47;4.07;;;;;;;20.99;53.02;102348.91;4964586;28;20142;-70
2023/10/01 00:55:17;;;;;;;7.45;4.57;;;;;;;20.98;53.20;102334.00;4964446;28;20038;-70
2023/10/01 00:57:42;;;;;;;7.15;4.20;;;;;;;20.98;52.72;102331.34;4964518;28;20060;-70
2023/10/01 01:00:14;;;;;;;6.60;3.88;;;;;;;20.97;52.83;102329.63;4964292;28;20050;-70
2023/10/01 01:02:56;;;;;;;6.30;3.75;;;;;;;20.97;52.95;102327.00;4964302;28;20554;-69
2023/10/01 01:05:24;;;;;;;6.40;3.78;;;;;;;20.97;52.74;102327.00;4949213;28;20038;-70
2023/10/01 01:07:50;;;;;;;8.93;3.85;;;;;;;20.96;53.06;102319.97;4964041;28;20027;-70
2023/10/01 01:10:16;;;;;;;6.68;4.40;;;;;;;20.96;52.62;102313.84;4964198;28;20035;-74
2023/10/01 01:12:53;;;;;;;6.68;3.72;;;;;;;20.94;52.97;102313.13;4963931;28;20035;-69
2023/10/01 01:15:21;;;;;;;6.70;4.10;;;;;;;20.96;52.85;102309.38;4964627;28;20226;-74
2023/10/01 01:17:50;;;;;;;6.75;4.03;;;;;;;20.94;53.04;102298.06;4963479;28;20035;-70
2023/10/01 01:20:16;;;;;;;6.68;3.78;;;;;;;20.95;52.70;102302.41;4963482;28;20148;-74
2023/10/01 01:22:49;;;;;;;6.57;4.13;;;;;;;20.93;52.67;102301.66;4964180;28;20480;-68
2023/10/01 01:25:20;;;;;;;7.35;4.10;;;;;;;20.95;52.69;102304.19;4964075;28;20476;-69
2023/10/01 01:27:48;;;;;;;6.75;3.75;;;;;;;20.94;52.60;102302.50;4963998;28;20046;-73
2023/10/01 01:30:18;;;;;;;8.50;4.28;;;;;;;20.92;53.00;102307.91;4963009;28;20031;-69
2023/10/01 01:32:47;;;;;;;5.95;3.85;;;;;;;20.92;52.61;102307.06;4963079;28;20041;-72
2023/10/01 01:35:14;;;;;;;7.15;4.03;;;;;;;20.92;52.75;102297.31;4964031;28;20038;-73
2023/10/01 01:37:48;;;;;;;6.15;3.83;;;;;;;20.91;52.51;102300.91;4963392;28;20039;-69
2023/10/01 01:40:24;;;;;;;6.63;3.60;;;;;;;20.91;52.38;102295.63;4963191;28;20070;-74
2023/10/01 01:42:56;;;;;;;7.68;4.07;;;;;;;20.91;52.62;102292.13;4963296;28;20042;-70
2023/10/01 01:45:27;;;;;;;6.00;3.70;;;;;;;20.92;52.53;102294.66;4963576;28;20033;-72
2023/10/01 01:47:53;;;;;;;6.25;3.75;;;;;;;20.91;52.69;102284.19;4961940;28;20030;-69
2023/10/01 01:50:19;;;;;;;7.85;3.90;;;;;;;20.90;52.71;102285.13;4963511;28;20035;-72
2023/10/01 01:52:51;;;;;;;7.75;3.75;;;;;;;20.89;52.50;102286.09;4962626;28;20104;-74
2023/10/01 01:55:26;;;;;;;6.72;4.00;;;;;;;20.89;52.60;102283.44;4962902;28;20066;-70
2023/10/01 01:58:10;;;;;;;6.15;3.50;;;;;;;20.89;52.48;102284.28;4963028;28;20121;-69
2023/10/01 02:03:51;;;;;;;6.15;3.45;;;;;;;20.89;52.41;102286.94;4954068;28;20061;-71
2023/10/01 02:06:35;;;;;;;6.13;3.47;;;;;;;20.90;52.47;102290.41;4961972;28;20419;-70
2023/10/01 02:09:01;;;;;;;8.20;3.42;;;;;;;20.89;52.34;102291.41;4962437;28;20117;-76
2023/10/01 02:11:29;;;;;;;5.75;3.17;;;;;;;20.88;52.37;102281.75;4963302;28;20037;-75
2023/10/01 02:14:29;;;;;;;6.75;3.47;;;;;;;20.88;52.36;102274.63;4962415;28;20031;-70
2023/10/01 02:17:16;;;;;;;6.35;3.70;;;;;;;20.87;52.57;102272.97;4962071;28;20115;-72
2023/10/01 02:19:46;;;;;;;7.03;3.70;;;;;;;20.87;52.55;102272.97;4962533;28;20073;-69
2023/10/01 02:22:12;;;;;;;6.47;3.55;;;;;;;20.87;52.38;102272.09;4961349;28;20042;-70
2023/10/01 02:24:44;;;;;;;5.93;3.83;;;;;;;20.86;52.49;102265.94;4962054;28;20034;-70
2023/10/01 02:27:26;;;;;;;6.70;3.45;;;;;;;20.87;52.17;102258.84;4961507;28;20530;-70
2023/10/01 02:30:13;;;;;;;5.28;3.08;;;;;;;20.87;52.36;102264.13;4961598;28;20105;-69
2023/10/01 02:35:58;;;;;;;7.03;3.60;;;;;;;20.85;52.36;102269.53;4920829;29;20039;-69
2023/10/01 02:41:09;;;;;;;6.80;3.30;;;;;;;20.86;52.24;102270.41;4962939;28;20046;-69
2023/10/01 02:43:53;;;;;;;6.47;3.20;;;;;;;20.85;52.57;102277.50;4961433;28;20053;-72
2023/10/01 02:46:26;;;;;;;6.63;3.20;;;;;;;20.83;52.17;102272.31;4962561;28;20038;-76
2023/10/01 02:49:12;;;;;;;5.63;3.08;;;;;;;20.84;52.08;102278.47;4960877;28;20054;-69
2023/10/01 02:51:38;;;;;;;7.68;3.53;;;;;;;20.83;52.12;102277.59;4944300;28;20508;-68
2023/10/01 02:54:08;;;;;;;5.93;3.00;;;;;;;20.84;52.10;102278.47;4962041;28;20057;-70
2023/10/01 02:56:52;;;;;;;7.05;3.70;;;;;;;20.82;52.37;102281.22;4961932;28;20039;-69
2023/10/01 02:59:20;;;;;;;5.55;3.25;;;;;;;20.81;52.13;102281.34;4961606;28;20086;-72
2023/10/01 03:01:46;;;;;;;6.15;3.20;;;;;;;20.83;52.26;102279.41;4961976;28;20089;-72
2023/10/01 03:04:13;;;;;;;5.93;3.20;;;;;;;20.81;52.06;102282.16;4961549;28;20035;-70
2023/10/01 03:06:47;;;;;;;6.13;3.22;;;;;;;20.82;52.20;102283.00;4961980;28;20530;-70
2023/10/01 03:09:34;;;;;;;6.90;3.47;;;;;;;20.81;52.07;102276.88;4962008;28;20035;-70
2023/10/01 03:15:00;;;;;;;6.68;3.40;;;;;;;20.80;52.21;102274.31;4961796;28;20096;-70
2023/10/01 03:17:38;;;;;;;6.15;3.25;;;;;;;20.79;52.20;102273.50;4962240;28;20125;-69
2023/10/01 03:21:02;;;;;;;6.75;3.13;;;;;;;20.79;52.06;102272.63;4961302;28;20042;-73
2023/10/01 03:22:54;;;;;;;6.82;3.35;;;;;;;20.80;52.20;102272.50;4961107;28;20042;-74
2023/10/01 03:25:24;;;;;;;6.35;3.28;;;;;;;20.79;52.08;102275.28;4962017;28;20046;-70
2023/10/01 03:28:07;;;;;;;5.78;3.10;;;;;;;20.79;52.00;102276.13;4961570;28;20043;-70
2023/10/01 03:31:01;;;;;;;7.07;3.30;;;;;;;20.79;52.25;102277.91;4960597;28;20105;-73
2023/10/01 03:33:27;;;;;;;6.65;3.13;;;;;;;20.79;52.13;102278.78;4961176;28;20070;-74
2023/10/01 03:35:52;;;;;;;6.10;3.30;;;;;;;20.78;51.89;102273.59;4961934;28;20027;-72
2023/10/01 03:38:22;;;;;;;6.25;3.15;;;;;;;20.77;51.83;102283.31;4961871;28;20491;-72
2023/10/01 03:41:00;;;;;;;6.43;2.97;;;;;;;20.77;51.83;102272.72;4961126;28;20034;-71
2023/10/01 03:43:35;;;;;;;6.45;3.08;;;;;;;20.78;51.96;102266.47;4961825;28;20113;-69
2023/10/01 03:51:28;;;;;;;6.68;3.58;;;;;;;20.76;51.82;102263.09;4962089;28;20077;-69
2023/10/01 03:53:59;;;;;;;6.70;2.92;;;;;;;20.77;51.73;102263.94;4960901;28;20086;-74
2023/10/01 03:56:29;;;;;;;6.97;3.22;;;;;;;20.76;52.10;102259.59;4961332;28;20077;-70
2023/10/01 03:58:55;;;;;;;6.70;3.45;;;;;;;20.75;51.71;102266.69;4960969;28;20055;-70
2023/10/01 04:01:33;;;;;;;5.43;3.28;;;;;;;20.74;51.84;102261.50;4961281;28;20054;-72
2023/10/01 04:04:01;;;;;;;5.07;2.92;;;;;;;20.75;51.97;102264.06;4961366;28;20049;-69
2023/10/01 04:06:29;;;;;;;6.03;3.45;;;;;;;20.75;51.98;102263.22;4961461;28;20062;-73
2023/10/01 04:08:55;;;;;;;6.22;3.10;;;;;;;20.74;51.75;102256.22;4961398;28;20031;-70
2023/10/01 04:11:41;;;;;;;5.50;3.17;;;;;;;20.75;51.94;102252.63;4962837;28;20027;-70
2023/10/01 04:14:08;;;;;;;6.35;3.25;;;;;;;20.75;51.87;102252.63;4964547;28;20632;-70
2023/10/01 04:16:34;;;;;;;5.20;2.75;;;;;;;20.74;51.96;102256.22;4965317;28;20182;-70
2023/10/01 04:19:00;;;;;;;5.07;2.72;;;;;;;20.72;51.66;102255.47;4964064;28;20480;-70
2023/10/01 04:21:25;;;;;;;7.15;3.00;;;;;;;20.73;51.70;102254.50;4964265;28;20046;-75
2023/10/01 04:23:50;;;;;;;5.53;3.20;;;;;;;20.73;51.83;102258.03;4965000;28;20042;-71
2023/10/01 04:26:17;;;;;;;6.82;3.30;;;;;;;20.73;51.75;102259.81;4947231;28;20061;-74
2023/10/01 04:28:45;;;;;;;5.60;3.20;;;;;;;20.71;51.92;102265.25;4964280;28;20031;-69
2023/10/01 04:31:42;;;;;;;5.78;2.90;;;;;;;20.70;51.53;102260.88;4964763;28;20084;-70
2023/10/01 04:34:10;;;;;;;7.82;3.58;;;;;;;20.71;51.55;102259.94;4964278;28;20031;-69
2023/10/01 04:36:40;;;;;;;6.80;3.17;;;;;;;20.72;51.80;102256.31;4964105;28;20176;-71
2023/10/01 04:39:05;;;;;;;7.07;3.15;;;;;;;20.71;51.53;102254.66;4963592;28;20106;-75
2023/10/01 04:41:31;;;;;;;6.28;2.90;;;;;;;20.72;51.65;102251.03;4964567;28;20551;-69
2023/10/01 04:44:06;;;;;;;5.85;2.90;;;;;;;20.71;51.47;102243.19;4963689;28;20035;-71
2023/10/01 04:46:45;;;;;;;6.50;3.05;;;;;;;20.71;51.63;102252.00;4963913;28;20034;-73
2023/10/01 04:49:39;;;;;;;5.50;3.40;;;;;;;20.72;51.77;102252.84;4964199;28;20472;-73
2023/10/01 04:52:10;;;;;;;6.13;2.97;;;;;;;20.73;51.34;102258.03;4947362;28;20039;-71
2023/10/01 04:54:37;;;;;;;6.40;3.05;;;;;;;20.69;51.63;102245.94;4963963;28;20039;-72
2023/10/01 04:57:03;;;;;;;6.30;3.17;;;;;;;20.70;51.31;102255.59;4963666;28;20045;-70
2023/10/01 04:59:28;;;;;;;5.97;3.10;;;;;;;20.69;51.53;102261.00;4964358;28;20497;-71
2023/10/01 05:01:56;;;;;;;5.82;2.90;;;;;;;20.69;51.46;102267.13;4963923;28;20034;-75
2023/10/01 05:04:26;;;;;;;5.95;3.47;;;;;;;20.68;51.44;102256.63;4963495;28;20041;-70
2023/10/01 05:07:04;;;;;;;6.70;3.60;;;;;;;20.69;51.45;102253.03;4963830;28;21089;-75
2023/10/01 05:09:29;;;;;;;6.68;3.22;;;;;;;20.67;51.48;102266.41;4964367;28;20039;-74
2023/10/01 05:11:58;;;;;;;5.45;2.95;;;;;;;20.68;51.26;102268.09;4963394;28;20030;-69
2023/10/01 05:14:23;;;;;;;6.80;3.38;;;;;;;20.68;51.59;102267.22;4963656;28;20404;-72
2023/10/01 05:16:49;;;;;;;7.35;3.55;;;;;;;20.68;51.71;102259.28;4963607;28;20034;-70
2023/10/01 05:19:15;;;;;;;6.60;3.38;;;;;;;20.68;51.73;102254.00;4963568;28;20134;-70
2023/10/01 05:21:47;;;;;;;6.72;3.15;;;;;;;20.65;51.47;102255.91;4963170;28;20120;-71
2023/10/01 05:24:36;;;;;;;6.35;3.17;;;;;;;20.66;51.30;102254.09;4963826;28;20043;-71
2023/10/01 05:27:09;;;;;;;7.47;3.53;;;;;;;20.64;51.22;102263.97;4963026;28;20069;-71
2023/10/01 05:29:39;;;;;;;6.72;3.25;;;;;;;20.64;51.23;102264.78;4963740;28;20027;-71
2023/10/01 05:32:04;;;;;;;5.70;3.20;;;;;;;20.65;51.35;102269.16;4963097;28;20496;-73
2023/10/01 05:34:31;;;;;;;6.93;3.20;;;;;;;20.63;51.34;102263.09;4963449;28;20035;-71
2023/10/01 05:37:08;;;;;;;6.43;3.47;;;;;;;20.63;51.24;102272.81;4963579;28;20129;-70
2023/10/01 05:39:55;;;;;;;6.63;3.00;;;;;;;20.61;51.13;102270.28;4963317;28;20057;-71
2023/10/01 05:42:24;;;;;;;6.00;3.35;;;;;;;20.63;51.37;102276.34;4963403;28;20463;-75
2023/10/01 05:44:59;;;;;;;6.07;3.20;;;;;;;20.64;51.35;102288.63;4962974;28;20031;-75
2023/10/01 05:47:41;;;;;;;6.18;3.47;;;;;;;20.62;51.17;102290.53;4962952;28;20035;-70
2023/10/01 05:50:11;;;;;;;6.80;3.17;;;;;;;20.63;51.35;102289.56;4963347;28;20042;-75
2023/10/01 05:52:40;;;;;;;6.95;3.10;;;;;;;20.63;51.04;102291.34;4961977;28;20030;-74
2023/10/01 05:55:12;;;;;;;6.53;3.47;;;;;;;20.62;51.46;102290.53;4963227;28;20027;-73
2023/10/01 05:57:41;;;;;;;6.43;2.90;;;;;;;20.61;51.21;102275.56;4962538;28;20035;-75
2023/10/01 06:00:17;;;;;;;7.03;3.42;;;;;;;20.59;51.26;102266.91;4962944;28;20517;-71
2023/10/01 06:03:00;;;;;;;6.45;3.20;;;;;;;20.61;51.56;102270.28;4963531;28;20026;-69
2023/10/01 06:05:33;;;;;;;7.22;3.70;;;;;;;20.62;51.58;102271.13;4963583;28;20121;-70
2023/10/01 06:08:12;;;;;;;5.90;3.28;;;;;;;20.62;51.35;102273.78;4962865;28;20640;-69
2023/10/01 06:10:59;;;;;;;6.45;3.47;;;;;;;20.58;51.45;102273.13;4963022;28;20113;-68
2023/10/01 06:13:28;;;;;;;7.70;3.70;;;;;;;20.61;51.42;102280.88;4963197;28;20185;-72
2023/10/01 06:15:56;;;;;;;5.88;3.10;;;;;;;20.61;51.59;102278.22;4962372;28;20104;-70
2023/10/01 06:18:22;;;;;;;7.65;3.33;;;;;;;20.60;51.43;102276.53;4963207;28;20086;-69
2023/10/01 06:20:50;;;;;;;7.18;3.35;;;;;;;20.61;51.50;102280.88;4962869;28;20030;-73
2023/10/01 06:23:16;;;;;;;5.57;3.05;;;;;;;20.60;51.31;102275.69;4963028;28;20506;-70
2023/10/01 06:25:43;;;;;;;7.28;3.25;;;;;;;20.61;51.36;102280.88;4962979;28;20118;-69
2023/10/01 06:28:09;;;;;;;5.90;3.20;;;;;;;20.59;51.54;102280.13;4961339;28;20469;-73
2023/10/01 06:30:39;;;;;;;6.32;3.33;;;;;;;20.58;51.27;102278.44;4962259;28;20138;-69
2023/10/01 06:33:09;;;;;;;6.20;3.30;;;;;;;20.60;51.23;102280.97;4945187;28;20142;-75
2023/10/01 06:35:38;;;;;;;9.32;3.75;;;;;;;20.59;51.52;102280.13;4962616;28;20046;-75
2023/10/01 06:38:04;;;;;;;6.95;3.35;;;;;;;20.60;51.44;102273.91;4961661;28;20562;-70
2023/10/01 06:40:30;;;;;;;6.00;3.10;;;;;;;20.56;51.46;102274.22;4962629;28;20034;-70
2023/10/01 06:43:00;;;;;;;8.00;3.28;;;;;;;20.58;51.61;102282.88;4961856;28;20399;-67
2023/10/01 06:45:41;;;;;;;7.95;3.13;;;;;;;20.57;51.52;102289.13;4962450;28;20035;-73
2023/10/01 06:48:14;;;;;;;6.97;3.25;;;;;;;20.58;51.65;102272.28;4962551;28;20073;-73
2023/10/01 06:50:40;;;;;;;6.95;3.53;;;;;;;20.57;51.97;102268.81;4961939;28;20034;-71
2023/10/01 06:53:07;;;;;;;6.68;3.13;;;;;;;20.56;51.81;102277.69;4962083;28;20039;-74
2023/10/01 06:55:36;;;;;;;6.50;3.45;;;;;;;20.57;52.28;102278.53;4961754;28;20077;-72
2023/10/01 06:58:06;;;;;;;8.23;3.60;;;;;;;20.57;52.41;102268.81;4961862;28;20036;-69
2023/10/01 07:00:36;;;;;;;6.68;3.28;;;;;;;20.55;52.28;102265.41;4961741;28;20059;-69
2023/10/01 07:03:17;;;;;;;6.82;3.55;;;;;;;20.56;52.90;102272.41;4961915;28;20034;-69
2023/10/01 07:05:45;;;;;;;7.05;3.35;;;;;;;20.58;52.64;102275.78;4961861;28;20062;-70
2023/10/01 07:08:11;;;;;;;6.82;3.30;;;;;;;20.58;52.81;102274.94;4961818;28;20035;-69
2023/10/01 07:10:37;;;;;;;6.05;3.30;;;;;;;20.59;52.47;102268.69;4961325;28;20159;-76
2023/10/01 07:13:05;;;;;;;7.22;3.45;;;;;;;20.59;52.63;102264.25;4962694;28;20498;-70
2023/10/01 07:15:37;;;;;;;7.43;3.33;;;;;;;20.58;52.78;102261.69;4962170;28;20038;-70
2023/10/01 07:18:15;;;;;;;8.40;3.70;;;;;;;20.60;52.82;102262.44;4961632;28;20066;-71
2023/10/01 07:20:44;;;;;;;7.30;3.55;;;;;;;20.60;52.82;102275.69;4961216;28;20541;-72
2023/10/01 07:23:13;;;;;;;7.53;3.60;;;;;;;20.60;52.74;102284.50;4962089;28;20034;-69
2023/10/01 07:25:42;;;;;;;6.20;3.33;;;;;;;20.61;52.72;102280.88;4960658;28;20031;-70
2023/10/01 07:28:12;;;;;;;6.88;3.25;;;;;;;20.59;52.62;102281.94;4961530;28;20555;-71
2023/10/01 07:30:46;;;;;;;6.40;3.60;;;;;;;20.59;52.94;102285.44;4961359;28;20125;-70
2023/10/01 07:33:17;;;;;;;7.53;3.35;;;;;;;20.60;53.09;102283.63;4961921;28;20035;-71
2023/10/01 07:35:44;;;;;;;8.18;3.30;;;;;;;20.62;53.14;102284.38;4961219;28;20125;-70
2023/10/01 07:38:13;;;;;;;7.10;3.28;;;;;;;20.63;53.45;102283.41;4961617;28;20045;-69
2023/10/01 07:43:33;;;;;;;13.85;3.85;;;;;;;20.67;53.49;102290.22;4948543;28;20053;-70
2023/10/01 07:46:01;;;;;;;7.43;3.67;;;;;;;20.69;53.69;102292.78;4964215;28;20035;-73
2023/10/01 07:48:29;;;;;;;8.68;3.88;;;;;;;20.71;53.69;102291.72;4965626;28;20518;-70
2023/10/01 07:50:55;;;;;;;7.97;3.50;;;;;;;20.73;53.47;102296.88;4964967;28;20089;-70
2023/10/01 07:53:23;;;;;;;7.63;3.60;;;;;;;20.72;53.63;102304.00;4947999;28;20088;-69
2023/10/01 07:55:48;;;;;;;6.70;3.35;;;;;;;20.64;54.05;102299.22;4961839;28;20711;-74
2023/10/01 07:58:23;;;;;;;8.63;3.42;;;;;;;20.58;54.06;102299.63;4967324;28;20049;-72
2023/10/01 08:00:58;;;;;;;8.18;3.50;;;;;;;20.56;54.39;102298.03;4962113;28;20055;-72
2023/10/01 08:06:05;;;;;;;10.18;3.78;;;;;;;20.48;54.66;102307.34;4960878;28;20038;-72
2023/10/01 08:08:37;;;;;;;7.72;3.75;;;;;;;20.46;55.08;102297.84;4964969;28;20117;-70
2023/10/01 08:11:03;;;;;;;8.50;3.22;;;;;;;20.52;55.18;102288.59;4946355;28;20054;-71
2023/10/01 08:13:30;;;;;;;7.38;3.60;;;;;;;20.64;54.42;102285.16;4961755;28;20440;-73
2023/10/01 08:16:02;;;;;;;12.88;4.30;;;;;;;20.75;54.16;102279.94;4964311;28;20058;-70
2023/10/01 08:18:34;;;;;;;9.02;3.92;;;;;;;20.83;54.01;102282.91;4964132;28;20091;-69
2023/10/01 08:21:02;;;;;;;7.70;3.53;;;;;;;20.86;53.73;102296.91;4964068;28;20045;-75
2023/10/01 08:23:43;;;;;;;9.88;3.75;;;;;;;20.86;53.86;102297.75;4948010;28;20043;-74
2023/10/01 08:28:57;;;;;;;9.00;4.15;;;;;;;20.90;53.47;102312.47;4964546;28;20090;-70
2023/10/01 08:34:23;;;;;;;9.15;3.90;;;;;;;20.89;53.65;102308.13;4950240;28;20063;-71
2023/10/01 08:36:56;;;;;;;9.38;4.03;;;;;;;20.88;53.44;102311.72;4964409;28;20870;-70
2023/10/01 08:39:33;;;;;;;9.32;3.80;;;;;;;20.88;53.43;102310.88;4963340;28;20042;-71
2023/10/01 08:42:08;;;;;;;7.82;3.95;;;;;;;20.88;53.80;102314.38;4962896;28;20058;-72
2023/10/01 08:45:03;;;;;;;9.88;3.92;;;;;;;20.88;53.70;102316.19;4964877;28;20213;-71
2023/10/01 08:47:32;;;;;;;9.77;3.95;;;;;;;20.88;53.73;102311.72;4964167;28;20038;-71
2023/10/01 08:50:28;;;;;;;8.02;4.00;;;;;;;20.87;53.80;102310.06;4962407;28;20499;-72
2023/10/01 08:53:09;;;;;;;9.18;3.88;;;;;;;20.87;53.73;102307.41;4964019;28;20110;-74
2023/10/01 08:58:15;;;;;;;8.27;3.47;;;;;;;20.88;53.63;102314.38;4963786;28;20058;-70
2023/10/01 09:00:52;;;;;;;8.73;4.55;;;;;;;20.88;53.77;102314.38;4963506;28;20051;-76
2023/10/01 09:03:29;;;;;;;9.40;3.90;;;;;;;20.87;53.90;102322.44;4963379;28;20038;-74
2023/10/01 09:06:24;;;;;;;9.23;4.30;;;;;;;20.89;53.42;102312.59;4963730;28;20031;-71
2023/10/01 09:08:54;;;;;;;8.90;4.30;;;;;;;20.89;53.96;102310.78;4963466;28;20035;-71
2023/10/01 09:11:47;;;;;;;9.07;3.95;;;;;;;20.89;53.89;102316.09;4963171;28;20050;-76
2023/10/01 09:14:39;;;;;;;8.43;3.97;;;;;;;20.88;54.00;102308.25;4963639;28;20085;-71
2023/10/01 09:17:24;;;;;;;9.13;3.88;;;;;;;20.87;53.93;102306.53;4963378;28;20428;-74
2023/10/01 09:19:50;;;;;;;9.10;4.10;;;;;;;20.88;53.93;102303.78;4963907;28;20069;-70
2023/10/01 09:22:16;;;;;;;9.13;4.10;;;;;;;20.86;54.24;102303.03;4963717;28;20774;-70
2023/10/01 09:24:43;;;;;;;10.80;4.60;;;;;;;20.87;53.98;102299.47;4963261;28;20037;-74
2023/10/01 09:27:18;;;;;;;10.05;4.20;;;;;;;20.88;54.24;102295.00;4963145;28;20042;-70
2023/10/01 09:29:45;;;;;;;9.93;4.38;;;;;;;20.89;54.04;102283.44;4963514;28;20133;-70
2023/10/01 09:32:13;;;;;;;7.55;3.95;;;;;;;20.88;54.14;102281.75;4963669;28;20396;-69
2023/10/01 09:34:53;;;;;;;10.45;4.18;;;;;;;20.89;53.95;102273.69;4962159;28;20039;-70
2023/10/01 09:37:34;;;;;;;8.52;4.25;;;;;;;20.91;53.76;102273.56;4963593;28;20084;-70
2023/10/01 09:40:32;;;;;;;7.57;3.53;;;;;;;20.89;53.91;102276.34;4963318;28;20113;-71
2023/10/01 09:43:02;;;;;;;8.55;4.15;;;;;;;20.89;54.27;102267.56;4963322;28;20035;-73
2023/10/01 09:45:37;;;;;;;8.30;4.00;;;;;;;20.90;53.84;102280.66;4945827;28;20033;-70
2023/10/01 09:48:04;;;;;;;9.10;4.18;;;;;;;20.90;54.26;102279.81;4963049;28;20023;-74
2023/10/01 09:50:41;;;;;;;9.27;4.18;;;;;;;20.89;54.00;102275.50;4963374;28;20544;-71
2023/10/01 09:53:14;;;;;;;8.95;3.88;;;;;;;20.91;54.17;102281.53;4963185;28;20031;-73
2023/10/01 09:55:47;;;;;;;8.02;4.05;;;;;;;20.92;54.36;102277.91;4960842;28;20035;-75
2023/10/01 09:58:24;;;;;;;8.73;4.00;;;;;;;20.91;54.20;102277.06;4963150;28;20060;-70
2023/10/01 10:01:08;;;;;;;9.60;4.10;;;;;;;20.94;53.65;102281.31;4962408;28;20058;-72
2023/10/01 10:03:59;;;;;;;8.95;3.63;;;;;;;20.91;54.36;102277.06;4962634;28;20121;-72
2023/10/01 10:06:25;;;;;;;8.35;3.75;;;;;;;20.93;54.17;102272.50;4962577;28;20046;-72
2023/10/01 10:09:03;;;;;;;7.88;4.00;;;;;;;20.94;54.44;102270.72;4961826;28;20393;-72
2023/10/01 10:11:29;;;;;;;7.85;4.05;;;;;;;20.94;54.20;102273.38;4945597;28;20496;-70
2023/10/01 10:13:58;;;;;;;8.30;3.75;;;;;;;20.93;54.07;102269.84;4961500;28;20082;-71
2023/10/01 10:16:32;;;;;;;7.63;3.90;;;;;;;20.93;54.10;102277.78;4963049;28;20125;-72
2023/10/01 10:19:20;;;;;;;8.68;4.22;;;;;;;20.92;54.36;102277.91;4962781;28;20031;-70
2023/10/01 10:24:46;;;;;;;8.55;3.85;;;;;;;20.92;54.63;102273.47;4963229;28;20049;-69
2023/10/01 10:27:25;;;;;;;7.55;4.10;;;;;;;20.92;54.29;102268.16;4962555;28;20033;-69
2023/10/01 10:29:56;;;;;;;9.85;4.15;;;;;;;20.92;54.24;102254.91;4962672;28;20186;-74
2023/10/01 10:32:26;;;;;;;9.18;4.55;;;;;;;20.92;54.57;102254.06;4961010;28;20683;-72
2023/10/01 10:35:04;;;;;;;8.85;3.95;;;;;;;20.92;54.47;102257.56;4960695;28;20889;-73
2023/10/01 10:37:35;;;;;;;8.73;4.20;;;;;;;20.91;54.54;102250.56;4962470;28;20294;-73
2023/10/01 10:40:13;;;;;;;9.02;4.25;;;;;;;20.93;54.56;102253.94;4962247;28;20066;-72
2023/10/01 10:42:40;;;;;;;8.30;4.15;;;;;;;20.92;54.47;102249.63;4962041;28;20026;-73
2023/10/01 10:45:20;;;;;;;7.18;3.75;;;;;;;20.91;54.61;102253.22;4962225;28;20039;-72
2023/10/01 10:48:03;;;;;;;9.85;4.00;;;;;;;20.91;54.56;102253.22;4962312;28;20551;-69
2023/10/01 10:50:50;;;;;;;9.20;4.10;;;;;;;20.92;54.57;102254.91;4961064;28;20990;-71
2023/10/01 10:53:42;;;;;;;9.95;4.03;;;;;;;20.92;54.77;102248.75;4961834;28;20034;-71
2023/10/01 10:56:08;;;;;;;9.00;4.25;;;;;;;20.94;54.60;102253.00;4961897;28;20104;-70
2023/10/01 10:58:43;;;;;;;8.32;4.32;;;;;;;20.92;54.75;102244.31;4961862;28;20043;-76
2023/10/01 11:01:16;;;;;;;8.20;3.95;;;;;;;20.93;54.44;102246.00;4961918;28;20038;-75
2023/10/01 11:03:47;;;;;;;7.93;3.90;;;;;;;20.91;54.82;102249.72;4960714;28;20034;-67
2023/10/01 11:06:15;;;;;;;8.63;4.23;;;;;;;20.90;54.76;102248.84;4961155;28;20272;-74
2023/10/01 11:08:50;;;;;;;8.13;3.88;;;;;;;20.87;54.87;102246.47;4961075;28;20054;-71
2023/10/01 11:11:27;;;;;;;9.15;4.07;;;;;;;20.85;55.18;102253.66;4961258;28;20035;-70
2023/10/01 11:14:02;;;;;;;8.52;4.18;;;;;;;20.86;55.07;102249.22;4961697;28;20066;-76
2023/10/01 11:16:36;;;;;;;8.65;4.75;;;;;;;20.85;55.18;102243.03;4961351;28;20480;-73
2023/10/01 11:19:12;;;;;;;8.55;3.75;;;;;;;20.85;55.04;102243.03;4962024;28;20097;-73
2023/10/01 11:22:00;;;;;;;8.35;4.45;;;;;;;20.85;55.38;102256.28;4961597;28;20035;-69
2023/10/01 11:24:29;;;;;;;10.48;4.25;;;;;;;20.89;55.40;102241.06;4961346;28;20034;-69
2023/10/01 11:27:24;;;;;;;11.57;4.78;;;;;;;20.88;56.08;102228.75;4961069;28;20407;-73
2023/10/01 11:30:13;;;;;;;10.80;4.70;;;;;;;20.92;56.15;102227.56;4959482;28;20053;-74
2023/10/01 11:33:13;;;;;;;10.70;4.55;;;;;;;20.85;56.17;102216.56;4961737;28;20406;-74
2023/10/01 11:35:59;;;;;;;10.00;4.32;;;;;;;20.82;56.41;102222.06;4962983;28;20050;-71
2023/10/01 11:38:26;;;;;;;10.05;4.40;;;;;;;20.79;56.18;102225.81;4960393;28;20058;-73
2023/10/01 11:41:12;;;;;;;13.60;5.63;;;;;;;20.73;56.40;102220.94;4961895;28;20093;-73
2023/10/01 11:44:00;;;;;;;8.48;4.30;;;;;;;20.73;56.12;102213.00;4961455;23;20062;-74
2023/10/01 11:46:32;;;;;;;12.70;4.65;;;;;;;20.72;56.44;102215.75;4940783;28;20130;-73
2023/10/01 11:49:07;;;;;;;10.82;4.70;;;;;;;20.70;56.52;102215.84;4941539;28;20035;-73
2023/10/01 11:51:43;;;;;;;11.30;4.90;;;;;;;20.71;56.33;102208.75;4941310;28;20130;-75
2023/10/01 11:54:09;;;;;;;10.57;4.13;;;;;;;20.71;56.29;102211.38;4942418;28;20039;-73
2023/10/01 11:56:43;;;;;;;13.20;4.70;;;;;;;20.70;56.58;102215.00;4942138;28;20039;-75
2023/10/01 11:59:19;;;;;;;12.07;5.10;;;;;;;20.71;56.68;102203.44;4943574;28;20039;-74
2023/10/01 12:01:47;;;;;;;11.23;5.05;;;;;;;20.71;56.67;102208.75;4946569;28;20082;-76
2023/10/01 12:04:43;;;;;;;9.77;4.68;;;;;;;20.71;56.81;102203.44;4943979;28;20062;-75
2023/10/01 12:07:18;;;;;;;8.60;4.53;;;;;;;20.73;56.49;102198.88;4946053;28;20039;-77
2023/10/01 12:09:50;;;;;;;8.18;4.20;;;;;;;20.76;56.40;102196.00;4943854;28;20125;-78
2023/10/01 12:12:36;;;;;;;11.30;5.00;;;;;;;20.76;56.47;102191.56;4926673;28;20066;-72
2023/10/01 12:17:30;;;;;;;11.55;5.05;;;;;;;20.77;56.22;102177.34;4756884;23;20094;-68
2023/10/01 12:28:33;;;;;;;9.65;4.40;;;;;;;20.70;56.42;102167.34;4187494;23;20301;-74
2023/10/01 12:31:09;;;;;;;9.65;4.40;;;;;;;20.76;56.04;102161.56;4730208;23;20064;-72
2023/10/01 12:33:40;;;;;;;10.43;4.32;;;;;;;20.77;56.16;102163.28;4888617;29;21175;-69
2023/10/01 12:41:47;;;;;;;11.43;4.55;;;;;;;20.87;56.08;102145.78;4898232;29;20042;-74